Historyczne dane pomiarowe

Dodano dane terminowe – wersja testowa.

Dane z okresu 1951-2019

Wersja bazy: 1.34 [2019-03-16, lista zmian], aktualizacja planowana na 2019-04-15

Dane meteo z obszaru Polski uzyskane na podstawie danych udostępnionych przez Instytut Meteorologii i Gospodarki Wodnej – Państwowy Instytut Badawczy.

 

Wybierz Datę:    

       

TemperaturaWilgotnośćWiatrCiśnienieOpadyŚniegCzas trwania zjawisk
 Stacja t tx tn tng RH VA  wxwx mslp ppp RRR   cm mm wxwxwxwxwxwxwx
2019-07-31 20.6 24.0 18.7 18.2-- 8.0----- 2.8------------
2019-07-30 24.0 30.5 20.5 19.2-- 6.0----- 0.0------------
2019-07-29 26.7 33.9 19.2 17.7-- 3.7----- 0.9------------
2019-07-28 23.3 31.4 17.2 16.3-- 3.7----- 0.6------------
2019-07-27 22.4 29.4 15.5 13.4-- 2.0----- 0.0------------
2019-07-26 24.2 31.3 17.9 16.3-- 0.7----- 0.0------------
2019-07-25 25.2 33.4 14.0 12.4-- 0.3----- 0.0------------
2019-07-24 23.3 31.1 13.8 12.4-- 1.0----- 0.0------------
2019-07-23 23.1 27.4 18.3 17.7-- 4.7----- 0.0------------
2019-07-22 20.3 25.9 13.3 11.9-- 7.3----- 0.0------------
2019-07-21 21.9 27.4 16.6 15.6-- 2.7----- 0.1------------
2019-07-20 22.7 30.4 13.8 11.4-- 2.7----- 6.6------------
2019-07-19 20.6 26.9 12.7 11.0-- 7.7----- 0.2------------
2019-07-18 19.9 27.4 10.4 9.5-- 2.7----- 0.0------------
2019-07-17 17.8 22.8 11.8 10.0-- 4.7----- 0.0------------
2019-07-16 17.0 20.3 14.3 13.4-- 8.0----- 0.2------------
2019-07-15 16.5 22.0 12.3 10.5-- 6.7----- 0.0------------
2019-07-14 15.6 21.8 10.4 8.5-- 5.0----- 7.3------------
2019-07-13 16.6 22.3 13.3 11.4-- 6.7----- 7.0------------
2019-07-12 17.0 23.8 9.9 6.4-- 7.7----- 6.4------------
2019-07-11 18.9 25.1 11.4 9.5-- 1.7----- 0.2------------
2019-07-10 15.3 22.0 8.9 5.9-- 5.3----- 2.7------------
2019-07-09 15.9 20.8 10.9 10.4-- 4.0----- 0.0------------
2019-07-08 14.4 19.3 8.3 4.4-- 6.3----- 0.0------------
2019-07-07 16.4 22.2 12.6 11.9-- 6.0----- 0.0------------
2019-07-06 21.1 29.9 14.8 10.5-- 7.7----- 4.6------------
2019-07-05 18.0 21.8 10.4 7.6-- 7.7----- 0.0------------
2019-07-04 16.6 23.3 6.5 4.4-- 1.0----- 0.0------------
2019-07-03 16.4 21.4 10.4 5.4-- 3.7----- 0.0------------
2019-07-02 20.3 27.0 14.3 11.4-- 2.7----- 0.0------------
2019-07-01 25.6 33.3 18.3 15.8-- 4.7----- 0.0------------
2019-06-30 26.8 38.3 13.1 10.0-- 0.3----- 0.0------------
2019-06-29 22.4 30.9 11.4 9.0-- 0.3----- 0.0------------
2019-06-28 19.8 25.1 13.8 10.0-- 3.3----- 0.0------------
2019-06-27 23.3 30.9 18.4 17.7-- 0.3----- 0.0------------
2019-06-26 28.7 38.3 18.2 15.3-- 2.0----- 0.0------------
2019-06-25 24.9 32.9 13.3 10.0-- 2.0----- 0.0------------
2019-06-24 21.1 29.9 8.3 6.4-- 0.3----- 0.0------------
2019-06-23 19.9 26.4 10.4 8.5-- 1.7----- 0.0------------
2019-06-22 20.5 26.5 11.9 10.0-- 1.7----- 0.0------------
2019-06-21 21.8 27.7 17.2 17.3-- 5.3----- 0.0------------
2019-06-20 24.1 30.7 14.8 12.6-- 4.0----- 1.1------------
2019-06-19 22.5 31.9 14.3 11.1-- 4.0----- 0.0------------
2019-06-18 22.2 27.6 12.1 9.1-- 1.3----- 0.0------------
2019-06-17 19.9 26.9 10.1 8.1-- 2.7----- 0.0------------
2019-06-16 21.4 25.4 18.2 17.1-- 4.0----- 0.0------------
2019-06-15 24.9 34.4 19.2 18.1-- 4.7----- 0.6------------
2019-06-14 22.2 29.6 12.9 11.1-- 1.7----- 0.0------------
2019-06-13 21.9 29.1 16.8 16.1-- 5.3----- 2.8------------
2019-06-12 27.3 33.9 19.7 17.6-- 3.0----- 1.5------------
2019-06-11 26.3 33.9 19.0 15.6-- 2.7----- 0.0------------
2019-06-10 23.5 29.9 15.8 14.6-- 5.3----- 0.0------------
2019-06-09 17.2 25.9 6.5 4.2-- 2.3----- 0.0------------
2019-06-08 18.3 22.8 13.3 11.3-- 4.0----- 0.0------------
2019-06-07 18.6 22.4 15.1 14.6-- 5.3----- 0.0------------
2019-06-06 22.7 31.5 15.4 13.6-- 3.7----- 1.0------------
2019-06-05 22.9 29.9 14.4 12.1-- 2.7----- 0.0------------
2019-06-04 22.5 28.4 14.8 12.1-- 1.7----- 0.0------------
2019-06-03 22.6 29.4 13.6 9.6-- 0.0----- 0.0------------
2019-06-02 20.7 28.4 11.4 8.8-- 1.0----- 0.0------------
77.9 ms

 

Źródłem pochodzenia danych jest Instytut Meteorologii i Gospodarki Wodnej – Państwowy Instytut Badawczy. Dane Instytutu Meteorologii i Gospodarki Wodnej – Państwowego Instytutu Badawczego zostały przetworzone.

Dane źródłowe można odnaleźć na stronie https://dane.imgw.pl